Loging...

KPDC, Korea Polar Data Center

Korea Polar Data Center Scientific observations and results from Antarctica shall
be exchanged and made freely available

Keyword Search

Advanced Search

Search 22,675 data out of 28,463

Metadata Search Results1
No. Title Reg. Date
1 [KOPRI-KPDC-00001516]Continuous monitoring of dissovled inorganic carbon and total alkalinity in the coast of the Jang Bogo Station, Antarctica 2020-10-29
2 [KOPRI-KPDC-00001515]Continuous monitoring of nutrients in the coast of the Jang Bogo Station, Antarctica 2020-10-29
3 [KOPRI-KPDC-00001514]Continuous monitoring of pCO2 and its relevant parameters in the coast of the Jang Bogo Station, Antarctica 2020-10-29
4 [KOPRI-KPDC-00001501]Temporal variation of marine phytoplankton in the surface water of the Antarctic Jang Bogo Station in Terra Nova Bay, January 2020- September 2020 2020-10-27
5 [KOPRI-KPDC-00001483]GPS data on ARAON DaDis for Arctic cruise, 2020 2020-10-23
6 [KOPRI-KPDC-00001482]Gyro compass data on ARAON DaDis for Arctic cruise, 2020 2020-10-23
7 [KOPRI-KPDC-00001484]Seismic data (ARA05C-L05 and L17 lines, segy format) and related inverted models (binary files) for Imaging the P-wave velocity structure of Arctic subsea permafrost 2020-10-19
8 [KOPRI-KPDC-00001191]RS19-GC03 2020-10-12
9 [KOPRI-KPDC-00001192]RS19-GC02B 2020-10-12
10 [KOPRI-KPDC-00001184]RS19-GC11 2020-10-12
11 [KOPRI-KPDC-00000648]Long cores from Antarctic Ross Sea(RS15-LC108) 2020-10-12
12 [KOPRI-KPDC-00001475]AM20-GC09 2020-10-12
13 [KOPRI-KPDC-00001474]AM20-GC06 2020-10-12
14 [KOPRI-KPDC-00001473]AMRS20-GC05 2020-10-12
15 [KOPRI-KPDC-00001472]AMRS20-GC04 2020-10-12
16 [KOPRI-KPDC-00001471]AMRS20-GC02 2020-10-12
17 [KOPRI-KPDC-00001468]Satellite SAR data-based sea ice drift vectors in Fram Strait (2019) 2020-10-06
18 [KOPRI-KPDC-00001466]Fluorometer data on ARAON DaDis for Arctic cruise, 2020 2020-10-04
19 [KOPRI-KPDC-00001465]Motion sensor data on ARAON DaDis for Arctic cruise, 2020 2020-10-04
20 [KOPRI-KPDC-00001464]Thermosalinograph data on ARAON DaDis for Arctic cruise, 2020 2020-10-04
21 [KOPRI-KPDC-00001463]Weather data on ARAON DaDis for Arctic cruise, 2020 2020-10-04
22 [KOPRI-KPDC-00001462]Wind data on ARAON DaDis for Arctic cruise, 2020 2020-10-04
23 [KOPRI-KPDC-00001460]Physical and chemical dataset for ARA06B, ARA07B, and ARA08B cruises 2020-09-17
24 [KOPRI-KPDC-00001456]Post-processed upper-ocean (0-100 m) CTD observation data over the Chukchi-East Siberian Seas during 2011-2016 2020-09-07
25 [KOPRI-KPDC-00001449]GPS data on ARAON DaDis for Antarctic cruise, 2019/2020 2020-06-25
26 [KOPRI-KPDC-00001448]Thermosalinograph data on ARAON DaDis for Antarctic cruise, 2019/2020 2020-06-25
27 [KOPRI-KPDC-00001447]Fluorometer data on ARAON DaDis for Antarctic cruise, 2019/2020 2020-06-25
28 [KOPRI-KPDC-00001446]Gyro compass data on ARAON DaDis for Antarctic cruise, 2019/2020 2020-06-25
29 [KOPRI-KPDC-00001445]Motion sensor data on ARAON DaDis for Antarctic cruise, 2019/2020 2020-06-25
30 [KOPRI-KPDC-00001444]Wind data on ARAON DaDis for Antarctic cruise, 2019/2020 2020-06-25
31 [KOPRI-KPDC-00001443]Weather data on ARAON DaDis for Antarctic cruise, 2019/2020 2020-06-25
32 [KOPRI-KPDC-00001442]LADCP data in the Amundsen Sea in 2020 2020-06-25
33 [KOPRI-KPDC-00001441]CTD data in the Amundsen Sea in 2020 2020-06-25
34 [KOPRI-KPDC-00001440]Mooring data in the Amundsen Sea from 2018 to 2020 2020-06-25
35 [KOPRI-KPDC-00001434]LADCP data observed in the Terra Nova Bay, Ross Sea, in March, 2020 (ANA10C) 2020-04-13
36 [KOPRI-KPDC-00001435]CTD profiles observed in the Terra Nova Bay, Ross Sea, in March, 2020 (ANA10C) 2020-04-13
37 [KOPRI-KPDC-00001431]CTD profiles observed in front of the Thwaites Glacier, Amundsen Sea, in February 2020 (ANA10B) 2020-04-06
38 [KOPRI-KPDC-00001432]LADCP data observed in front of the Thwaites Glacier, Amundsen Sea, in February, 2020 (ANA10B) 2020-04-06
39 [KOPRI-KPDC-00001430]Sea ice carbon data for the East Siberian Sea, Arctic Ocean in 2017 2020-04-02
40 [KOPRI-KPDC-00001429]Temporal variation of phytoplankton in the surface water of Marian Cove, King George Island, Antarctica, 2019 2020-03-30
41 [KOPRI-KPDC-00001428]Temporal variation of marine phytoplankton in the surface water of the Antarctic Jang Bogo Station in Terra Nova Bay, October 2018- December 2019 2020-03-26
42 [KOPRI-KPDC-00001396]Wind data on ARAON DaDis for Arctic cruise, 2019 2020-03-04
43 [KOPRI-KPDC-00001409]ARA10C Multi-Channel Seismic Survey Data 2020-03-04
44 [KOPRI-KPDC-00001241]Phytoplankton abundance in the Amundsen Sea in 2017/2018 2020-03-03
45 [KOPRI-KPDC-00000601]Depth profiles of temperature and salinity in the Ross Sea, Antarctica, in December 2015 2020-01-28
46 [KOPRI-KPDC-00000749]NIWA oceanographic mooring data in the Drygalski Ice Tongue North 2016 2020-01-28
47 [KOPRI-KPDC-00000906]NIWA oceanographic deep mooring data in the Drygalski Ice Tongue 2017 2020-01-28
48 [KOPRI-KPDC-00000898]NIWA oceanographic mooring data in the Drygalski Ice Tongue North 2017 2020-01-28
49 [KOPRI-KPDC-00001060]NIWA oceanographic mooring data in the Drygalski Ice Tongue North 2015 2020-01-28
50 [KOPRI-KPDC-00000896]LADCP data observed in the Terra Nova Bay, Ross Sea, in March, 2018 (ANA08C) 2020-01-28
51 [KOPRI-KPDC-00001065]LADCP data observed in the Terra Nova Bay, Ross Sea, in January, 2017 (ANA07C) 2020-01-28
52 [KOPRI-KPDC-00001061]LADCP data observed in the Terra Nova Bay, Ross Sea, in December, 2015 (ANA06A) 2020-01-28
53 [KOPRI-KPDC-00001064]LADCP data observed in the Terra Nova Bay, Ross Sea, in December, 2014 (ANA05A) 2020-01-28
54 [KOPRI-KPDC-00000895]CTD profiles observed in the Terra Nova Bay, Ross Sea, in March, 2018 (ANA08C) 2020-01-28
55 [KOPRI-KPDC-00001063]CTD profiles observed in the Terra Nova Bay, Ross Sea, in January, 2017 (ANA07C) 2020-01-28
56 [KOPRI-KPDC-00001062]CTD profiles observed in the Terra Nova Bay, Ross Sea, in December, 2014 (ANA05A) 2020-01-28
57 [KOPRI-KPDC-00001422]Surface observation of CH4 in the atmosphere and ocean 2020-01-09
58 [KOPRI-KPDC-00001423]2019 Arctic Araon Cruise (ARA10C) sediment cores (multiple, gravity, and box cores) 2019-12-16
59 [KOPRI-KPDC-00001421]Hydrocasting observation of conductivity, temperature, and depth (CTD) 2019-12-16
60 [KOPRI-KPDC-00001224]ANA09B Seismic Sparker Survey Lines 2019-12-13
61 [KOPRI-KPDC-00001408]ARA10C Sub-bottom profiler Survey Data 2019-12-13
62 [KOPRI-KPDC-00001419]Wind data on ARAON DaDis for Antarctic cruise, 2018/2019 2019-12-11
63 [KOPRI-KPDC-00001407]ARA10C Multibeam Survey 2019-11-19
64 [KOPRI-KPDC-00001405]Wind data on ARAON DaDis for Antarctic cruise, 2018/2019 2019-11-12
65 [KOPRI-KPDC-00001404]Wind data on ARAON DaDis for Antarctic cruise, 2017/2018 2019-11-12
66 [KOPRI-KPDC-00001403]Wind data on ARAON DaDis for Antarctic cruise, 2016/2017 2019-11-12
67 [KOPRI-KPDC-00001402]Wind data on ARAON DaDis for Antarctic cruise, 2015/2016 2019-11-12
68 [KOPRI-KPDC-00001401]Wind data on ARAON DaDis for Antarctic cruise, 2014/2015 2019-11-12
69 [KOPRI-KPDC-00001400]Wind data on ARAON DaDis for Antarctic cruise, 2013/2014 2019-11-12
70 [KOPRI-KPDC-00001399]Wind data on ARAON DaDis for Antarctic cruise, 2012/2013 2019-11-12
71 [KOPRI-KPDC-00001398]Wind data on ARAON DaDis for Antarctic cruise, 2011/2012 2019-11-12
72 [KOPRI-KPDC-00001397]Wind data on ARAON DaDis for Antarctic cruise, 2010/2011 2019-11-12
73 [KOPRI-KPDC-00001395]Wind data on ARAON DaDis for Arctic cruise, 2018 2019-11-12
74 [KOPRI-KPDC-00001394]Wind data on ARAON DaDis for Arctic cruise, 2017 2019-11-12
75 [KOPRI-KPDC-00001393]Wind data on ARAON DaDis for Arctic cruise, 2016 2019-11-12
76 [KOPRI-KPDC-00001392]Wind data on ARAON DaDis for Arctic cruise, 2015 2019-11-12
77 [KOPRI-KPDC-00001391]Wind data on ARAON DaDis for Arctic cruise, 2010 2019-11-12
78 [KOPRI-KPDC-00001390]Wind data on ARAON DaDis for Arctic cruise, 2011 2019-11-12
79 [KOPRI-KPDC-00001389]Wind data on ARAON DaDis for Arctic cruise, 2012 2019-11-12
80 [KOPRI-KPDC-00001388]Wind data on ARAON DaDis for Arctic cruise, 2013 2019-11-12
81 [KOPRI-KPDC-00001387]Wind data on ARAON DaDis for Arctic cruise, 2014 2019-11-12
82 [KOPRI-KPDC-00001386]Weather data on ARAON DaDis for Arctic cruise, 2019 2019-11-12
83 [KOPRI-KPDC-00001385]Weather data on ARAON DaDis for Arctic cruise, 2018 2019-11-12
84 [KOPRI-KPDC-00001384]Weather data on ARAON DaDis for Arctic cruise, 2017 2019-11-12
85 [KOPRI-KPDC-00001383]Weather data on ARAON DaDis for Arctic cruise, 2016 2019-11-12
86 [KOPRI-KPDC-00001382]Weather data on ARAON DaDis for Antarctic cruise, 2018/2019 2019-11-12
87 [KOPRI-KPDC-00001381]Weather data on ARAON DaDis for Antarctic cruise, 2017/2018 2019-11-12
88 [KOPRI-KPDC-00001380]Weather data on ARAON DaDis for Antarctic cruise, 2016/2017 2019-11-12
89 [KOPRI-KPDC-00001379]Thermosalinograph data on ARAON DaDis for Antarctic cruise, 2018/2019 2019-11-12
90 [KOPRI-KPDC-00001378]Thermosalinograph data on ARAON DaDis for Antarctic cruise, 2017/2018 2019-11-12
91 [KOPRI-KPDC-00001377]Thermosalinograph data on ARAON DaDis for Antarctic cruise, 2016/2017 2019-11-12
92 [KOPRI-KPDC-00001376]Thermosalinograph data on ARAON DaDis for Antarctic cruise, 2015/2016 2019-11-12
93 [KOPRI-KPDC-00001375]Thermosalinograph data on ARAON DaDis for Antarctic cruise, 2014/2015 2019-11-12
94 [KOPRI-KPDC-00001374]Thermosalinograph data on ARAON DaDis for Antarctic cruise, 2013/2014 2019-11-12
95 [KOPRI-KPDC-00001373]Thermosalinograph data on ARAON DaDis for Antarctic cruise, 2012/2013 2019-11-12
96 [KOPRI-KPDC-00001372]Thermosalinograph data on ARAON DaDis for Antarctic cruise, 2011/2012 2019-11-12
97 [KOPRI-KPDC-00001371]Thermosalinograph data on ARAON DaDis for Antarctic cruise, 2010/2011 2019-11-12
98 [KOPRI-KPDC-00001370]Thermosalinograph data on ARAON DaDis for Arctic cruise, 2019 2019-11-12
99 [KOPRI-KPDC-00001369]Thermosalinograph data on ARAON DaDis for Arctic cruise, 2018 2019-11-12
100 [KOPRI-KPDC-00001368]Thermosalinograph data on ARAON DaDis for Arctic cruise, 2017 2019-11-12